createdAt,value
2022-09-28T00:01:22.342Z,57.73
2022-09-28T00:03:51.904Z,58.97
2022-09-28T00:06:21.644Z,59.21
2022-09-28T00:08:50.147Z,59.20
2022-09-28T00:11:19.153Z,59.71
2022-09-28T00:13:50.148Z,59.79
2022-09-28T00:16:21.373Z,59.69
2022-09-28T00:18:51.232Z,59.88
2022-09-28T00:21:24.372Z,59.96
2022-09-28T00:24:15.716Z,59.96
2022-09-28T00:26:47.946Z,60.31
2022-09-28T00:29:17.153Z,60.00
2022-09-28T00:31:44.968Z,59.92
2022-09-28T00:34:13.008Z,60.25
2022-09-28T00:36:43.654Z,60.52
2022-09-28T00:39:12.252Z,60.35
2022-09-28T00:41:39.880Z,60.41
2022-09-28T00:44:22.391Z,60.40
2022-09-28T00:47:10.491Z,60.59
2022-09-28T00:49:51.548Z,60.56
2022-09-28T00:52:25.413Z,61.12
2022-09-28T00:54:53.520Z,58.44
2022-09-28T00:57:22.776Z,59.22
2022-09-28T00:59:51.327Z,60.13
2022-09-28T01:02:39.064Z,60.90
2022-09-28T01:05:07.950Z,60.78
2022-09-28T01:07:35.832Z,61.00
2022-09-28T01:10:04.550Z,61.15
2022-09-28T01:12:32.141Z,59.98
2022-09-28T01:15:00.555Z,58.79
2022-09-28T01:17:37.706Z,59.27
2022-09-28T01:20:31.746Z,57.65
2022-09-28T01:23:19.041Z,57.91
2022-09-28T01:25:54.903Z,57.74
2022-09-28T01:28:26.589Z,57.81
2022-09-28T01:31:08.277Z,56.65
2022-09-28T01:33:45.386Z,56.55
2022-09-28T01:36:17.883Z,56.48
2022-09-28T01:38:49.499Z,55.99
2022-09-28T01:41:17.853Z,56.44
2022-09-28T01:43:51.698Z,56.36
2022-09-28T01:46:24.100Z,55.85
2022-09-28T01:48:57.260Z,55.53
2022-09-28T01:51:42.676Z,55.64
2022-09-28T01:54:15.180Z,56.68
2022-09-28T01:56:54.325Z,56.53
2022-09-28T01:59:28.559Z,57.04
2022-09-28T02:02:00.878Z,57.46
2022-09-28T02:04:32.838Z,57.55
2022-09-28T02:07:24.520Z,56.54
2022-09-28T02:09:57.103Z,57.57
2022-09-28T02:12:34.616Z,57.53
2022-09-28T02:15:15.156Z,57.23
2022-09-28T02:17:42.916Z,55.80
2022-09-28T02:20:13.143Z,54.78
2022-09-28T02:22:44.325Z,56.02
2022-09-28T02:25:38.174Z,56.52
2022-09-28T02:28:08.001Z,56.15
2022-09-28T02:30:37.832Z,56.16
2022-09-28T02:33:20.017Z,54.05
2022-09-28T02:35:48.936Z,54.90
2022-09-28T02:38:17.045Z,55.41
2022-09-28T02:40:54.781Z,55.22
2022-09-28T02:43:30.121Z,54.51
2022-09-28T02:46:22.311Z,54.52
2022-09-28T02:49:21.488Z,55.72
2022-09-28T02:51:58.672Z,55.63
2022-09-28T02:54:39.248Z,56.45
2022-09-28T02:57:25.071Z,56.92
2022-09-28T03:00:10.579Z,57.28
2022-09-28T03:02:58.440Z,57.32
2022-09-28T03:05:41.272Z,56.88
2022-09-28T03:08:14.527Z,57.57
2022-09-28T03:10:46.544Z,57.81
2022-09-28T03:13:16.461Z,56.91
2022-09-28T03:15:48.648Z,57.04
2022-09-28T03:18:17.476Z,56.61
2022-09-28T03:20:45.225Z,56.57
2022-09-28T03:23:24.505Z,56.75
2022-09-28T03:25:52.900Z,57.27
2022-09-28T03:28:21.359Z,57.60
2022-09-28T03:30:49.365Z,57.51
2022-09-28T03:33:17.232Z,57.60
2022-09-28T03:35:47.729Z,58.75
2022-09-28T03:38:15.464Z,59.00
2022-09-28T03:40:43.323Z,58.54
2022-09-28T03:43:10.763Z,58.14
2022-09-28T03:45:38.447Z,58.48
2022-09-28T03:48:06.048Z,59.16
2022-09-28T03:50:34.198Z,59.17
2022-09-28T03:53:02.798Z,59.31
2022-09-28T03:55:31.169Z,59.49
2022-09-28T03:57:58.579Z,59.48
2022-09-28T04:00:28.571Z,59.20
2022-09-28T04:02:56.192Z,59.33
2022-09-28T04:05:23.515Z,59.43
2022-09-28T04:07:51.052Z,59.30
2022-09-28T04:10:18.639Z,58.64
2022-09-28T04:12:45.950Z,58.14
2022-09-28T04:15:14.993Z,58.18
2022-09-28T04:17:43.193Z,58.19
2022-09-28T04:20:12.285Z,58.41
2022-09-28T04:22:39.780Z,58.15
2022-09-28T04:25:07.786Z,58.54
2022-09-28T04:27:54.005Z,58.58
2022-09-28T04:30:21.938Z,58.28
2022-09-28T04:32:49.497Z,58.44
2022-09-28T04:35:17.224Z,58.82
2022-09-28T04:37:44.817Z,58.30
2022-09-28T04:40:12.136Z,58.60
2022-09-28T04:42:39.503Z,58.65
2022-09-28T04:45:07.827Z,58.82
2022-09-28T04:47:35.734Z,58.81
2022-09-28T04:50:07.695Z,58.92
2022-09-28T04:52:36.823Z,59.01
2022-09-28T04:55:05.623Z,58.87
2022-09-28T04:57:36.644Z,58.87
2022-09-28T05:00:05.350Z,58.54
2022-09-28T05:02:34.159Z,58.10
2022-09-28T05:05:02.807Z,58.17
2022-09-28T05:07:31.206Z,58.62
2022-09-28T05:10:00.547Z,58.54
2022-09-28T05:12:27.973Z,58.50
2022-09-28T05:14:56.503Z,70.95
2022-09-28T05:17:23.839Z,65.97
2022-09-28T05:19:53.209Z,61.76
2022-09-28T05:22:20.880Z,59.13
2022-09-28T05:24:48.173Z,58.72
2022-09-28T05:27:15.817Z,58.40
2022-09-28T05:29:45.426Z,58.31
2022-09-28T05:32:13.754Z,58.37
2022-09-28T05:34:41.643Z,58.23
2022-09-28T05:37:09.957Z,58.13
2022-09-28T05:39:37.352Z,57.50
2022-09-28T05:42:04.682Z,64.60
2022-09-28T05:44:32.723Z,62.56
2022-09-28T05:47:00.092Z,57.47
2022-09-28T05:49:31.563Z,56.79
2022-09-28T05:51:59.897Z,55.73
2022-09-28T05:54:27.434Z,54.94
2022-09-28T05:56:54.776Z,54.12
2022-09-28T05:59:22.441Z,53.90
2022-09-28T06:01:50.003Z,52.78
2022-09-28T06:04:17.664Z,52.76
2022-09-28T06:06:45.136Z,52.20
2022-09-28T06:09:12.520Z,51.93
2022-09-28T06:11:40.412Z,50.95
2022-09-28T06:14:08.736Z,50.07
2022-09-28T06:16:39.355Z,49.51
2022-09-28T06:19:11.843Z,50.00
2022-09-28T06:21:39.349Z,49.80
2022-09-28T06:24:07.249Z,47.60
2022-09-28T06:26:36.176Z,48.51
2022-09-28T06:29:04.952Z,48.35
2022-09-28T06:31:32.314Z,47.81
2022-09-28T06:34:02.025Z,45.63
2022-09-28T06:36:31.297Z,47.78
2022-09-28T06:38:58.883Z,46.74
2022-09-28T06:41:26.884Z,46.75
2022-09-28T06:43:54.266Z,46.87
2022-09-28T06:46:24.433Z,46.64
2022-09-28T06:48:54.541Z,46.92
2022-09-28T06:51:22.997Z,46.25
2022-09-28T06:53:53.785Z,45.57
2022-09-28T06:56:21.455Z,44.75
2022-09-28T06:58:48.826Z,44.46
2022-09-28T07:01:16.177Z,45.24
2022-09-28T07:03:45.840Z,44.49
2022-09-28T07:06:14.787Z,45.34
2022-09-28T07:08:43.326Z,45.10
2022-09-28T07:11:17.500Z,45.00
2022-09-28T07:13:51.336Z,44.95
2022-09-28T07:16:22.871Z,45.31
2022-09-28T07:18:54.298Z,44.86
2022-09-28T07:21:28.975Z,44.63
2022-09-28T07:23:57.473Z,45.25
2022-09-28T07:26:26.159Z,44.39
2022-09-28T07:28:55.701Z,45.35
2022-09-28T07:31:25.193Z,44.64
2022-09-28T07:33:53.965Z,45.74
2022-09-28T07:36:22.794Z,45.85
2022-09-28T07:38:51.213Z,44.24
2022-09-28T07:41:26.980Z,45.84
2022-09-28T07:43:55.388Z,44.87
2022-09-28T07:46:23.005Z,44.65
2022-09-28T07:48:51.727Z,44.89
2022-09-28T07:51:21.208Z,46.27
2022-09-28T07:53:49.981Z,45.96
2022-09-28T07:56:20.326Z,45.98
2022-09-28T07:58:48.664Z,44.95
2022-09-28T08:01:19.166Z,45.06
2022-09-28T08:03:47.985Z,45.28
2022-09-28T08:06:17.083Z,45.61
2022-09-28T08:08:44.832Z,44.30
2022-09-28T08:11:15.034Z,44.41
2022-09-28T08:13:43.907Z,44.67
2022-09-28T08:16:13.566Z,44.08
2022-09-28T08:18:41.144Z,44.96
2022-09-28T08:21:28.784Z,44.45
2022-09-28T08:23:56.460Z,45.06
2022-09-28T08:26:23.827Z,45.77
2022-09-28T08:28:51.429Z,44.93
2022-09-28T08:31:21.534Z,45.25
2022-09-28T08:33:53.647Z,44.78
2022-09-28T08:36:28.238Z,44.37
2022-09-28T08:38:56.582Z,44.91
2022-09-28T08:41:48.308Z,45.16
2022-09-28T08:44:24.003Z,45.92
2022-09-28T08:47:00.745Z,45.03
2022-09-28T08:49:34.465Z,46.34
2022-09-28T08:52:33.276Z,45.17
2022-09-28T08:55:33.130Z,45.05
2022-09-28T08:58:37.135Z,44.38
2022-09-28T09:01:07.811Z,45.55
2022-09-28T09:03:44.498Z,44.25
2022-09-28T09:06:33.265Z,44.94
2022-09-28T09:09:12.936Z,44.84
2022-09-28T09:12:07.698Z,44.98
2022-09-28T09:14:55.588Z,45.32
2022-09-28T09:17:29.038Z,45.52
2022-09-28T09:20:04.535Z,43.73
2022-09-28T09:22:59.021Z,45.05
2022-09-28T09:25:29.153Z,44.36
2022-09-28T09:28:24.620Z,43.42
2022-09-28T09:31:03.025Z,44.85
2022-09-28T09:33:38.669Z,45.08
2022-09-28T09:36:32.160Z,44.80
2022-09-28T09:39:02.767Z,45.05
2022-09-28T09:41:49.975Z,45.66
2022-09-28T09:44:36.668Z,44.79
2022-09-28T09:47:08.062Z,45.35
2022-09-28T09:50:30.559Z,45.10
2022-09-28T09:53:20.868Z,44.56
2022-09-28T09:55:54.799Z,45.29
2022-09-28T09:58:30.227Z,44.88
2022-09-28T10:01:10.485Z,44.59
2022-09-28T10:03:42.415Z,44.81
2022-09-28T10:06:16.886Z,45.86
2022-09-28T10:08:48.690Z,45.66
2022-09-28T10:11:27.315Z,45.14
2022-09-28T10:13:55.287Z,44.97
2022-09-28T10:16:25.081Z,43.69
2022-09-28T10:18:52.880Z,44.50
2022-09-28T10:21:23.763Z,44.35
2022-09-28T10:24:00.382Z,44.98
2022-09-28T10:26:39.533Z,45.58
2022-09-28T10:29:26.492Z,45.06
2022-09-28T10:31:54.537Z,44.87
2022-09-28T10:34:30.800Z,44.53
2022-09-28T10:37:03.317Z,45.58
2022-09-28T10:39:34.495Z,45.91
2022-09-28T10:42:06.328Z,44.51
2022-09-28T10:44:47.449Z,45.71
2022-09-28T10:47:18.831Z,45.24
2022-09-28T10:49:48.772Z,43.59
2022-09-28T10:52:42.709Z,43.29
2022-09-28T10:55:24.708Z,43.82
2022-09-28T10:57:53.073Z,43.68
2022-09-28T11:00:34.499Z,44.19
2022-09-28T11:03:03.144Z,44.85
2022-09-28T11:05:31.086Z,45.79
2022-09-28T11:08:00.847Z,45.64
2022-09-28T11:10:30.795Z,44.74
2022-09-28T11:12:58.608Z,44.84
2022-09-28T11:15:29.005Z,43.62
2022-09-28T11:17:57.452Z,43.07
2022-09-28T11:20:27.774Z,43.75
2022-09-28T11:22:59.700Z,41.99
2022-09-28T11:25:28.961Z,43.07
2022-09-28T11:28:00.506Z,42.70
2022-09-28T11:30:33.537Z,42.92
2022-09-28T11:33:05.026Z,42.19
2022-09-28T11:35:48.832Z,42.57
2022-09-28T11:38:23.611Z,42.35
2022-09-28T11:41:24.841Z,42.17
2022-09-28T11:43:57.815Z,43.72
2022-09-28T11:46:44.312Z,41.52
2022-09-28T11:50:07.779Z,40.76
2022-09-28T11:52:48.434Z,41.98
2022-09-28T11:55:27.858Z,43.11
2022-09-28T11:58:26.196Z,42.85
2022-09-28T12:01:25.134Z,42.10
2022-09-28T12:03:57.760Z,41.94
2022-09-28T12:06:36.744Z,42.68
2022-09-28T12:09:16.351Z,41.86
2022-09-28T12:11:45.846Z,43.58
2022-09-28T12:14:32.683Z,41.57
2022-09-28T12:17:20.220Z,41.76
2022-09-28T12:20:10.725Z,42.53
2022-09-28T12:22:42.724Z,42.05
2022-09-28T12:25:12.122Z,43.27
2022-09-28T12:27:49.385Z,43.11
2022-09-28T12:30:26.948Z,43.41
2022-09-28T12:32:59.316Z,44.11
2022-09-28T12:35:48.567Z,44.24
2022-09-28T12:38:15.729Z,44.10
2022-09-28T12:41:01.781Z,44.39
2022-09-28T12:43:41.420Z,44.08
2022-09-28T12:46:27.970Z,43.05
2022-09-28T12:55:33.210Z,43.91
2022-09-28T12:58:26.190Z,42.41
2022-09-28T13:01:15.532Z,42.96
2022-09-28T13:04:11.502Z,43.48
2022-09-28T13:06:52.137Z,44.06
2022-09-28T13:09:24.353Z,43.57
2022-09-28T13:11:54.386Z,43.05
2022-09-28T13:14:55.248Z,44.19
2022-09-28T13:17:53.724Z,43.23
2022-09-28T13:20:32.228Z,43.60
2022-09-28T13:23:16.463Z,43.81
2022-09-28T13:25:51.116Z,43.68
2022-09-28T13:28:21.289Z,44.47
2022-09-28T13:30:51.536Z,43.71
2022-09-28T13:33:39.611Z,44.63
2022-09-28T13:36:28.443Z,44.65
2022-09-28T13:38:57.156Z,44.31
2022-09-28T13:41:34.491Z,43.91
2022-09-28T13:44:11.006Z,43.87
2022-09-28T13:47:10.115Z,42.78
2022-09-28T13:49:56.502Z,42.99
2022-09-28T13:52:46.052Z,41.89
2022-09-28T13:55:28.916Z,43.28
2022-09-28T13:58:00.916Z,42.53
2022-09-28T14:00:29.468Z,41.89
2022-09-28T14:03:06.174Z,42.55
2022-09-28T14:05:53.221Z,44.13
2022-09-28T14:09:05.487Z,41.79
2022-09-28T14:11:35.752Z,42.47
2022-09-28T14:14:11.706Z,43.09
2022-09-28T14:16:39.828Z,41.90
2022-09-28T14:19:08.433Z,42.23
2022-09-28T14:21:44.632Z,42.11
2022-09-28T14:24:30.173Z,42.42
2022-09-28T14:27:12.644Z,42.49
2022-09-28T14:29:40.588Z,43.01
2022-09-28T14:32:07.746Z,42.95
2022-09-28T14:34:41.926Z,42.90
2022-09-28T14:37:40.673Z,43.12
2022-09-28T14:40:39.925Z,43.07
2022-09-28T14:43:35.715Z,44.93
2022-09-28T14:46:12.278Z,44.08
2022-09-28T14:49:04.273Z,43.47
2022-09-28T14:51:54.404Z,43.61
2022-09-28T14:54:23.473Z,43.43
2022-09-28T14:56:53.478Z,43.45
2022-09-28T14:59:38.486Z,44.18
2022-09-28T15:02:13.345Z,43.95
2022-09-28T15:04:53.108Z,45.08
2022-09-28T15:07:30.170Z,44.10
2022-09-28T15:09:58.307Z,43.88
2022-09-28T15:12:28.051Z,44.74
2022-09-28T15:14:56.493Z,45.44
2022-09-28T15:17:30.440Z,44.33
2022-09-28T15:20:21.785Z,44.61
2022-09-28T15:22:50.848Z,44.50
2022-09-28T15:25:20.798Z,44.67
2022-09-28T15:27:54.178Z,44.44
2022-09-28T15:30:26.863Z,45.16
2022-09-28T15:33:17.680Z,44.26
2022-09-28T15:35:50.810Z,45.89
2022-09-28T15:38:18.304Z,45.67
2022-09-28T15:40:47.458Z,45.18
2022-09-28T15:43:30.168Z,44.82
2022-09-28T15:46:13.197Z,45.61
2022-09-28T15:48:45.863Z,44.02
2022-09-28T15:51:13.465Z,44.79
2022-09-28T15:53:56.018Z,44.84
2022-09-28T15:56:24.550Z,44.80
2022-09-28T15:59:10.494Z,44.70
2022-09-28T16:01:39.663Z,44.58
2022-09-28T16:04:33.855Z,44.66
2022-09-28T16:07:10.162Z,44.72
2022-09-28T16:10:01.156Z,44.76
2022-09-28T16:12:35.761Z,44.96
2022-09-28T16:15:16.147Z,45.10
2022-09-28T16:17:43.801Z,45.25
2022-09-28T16:20:24.622Z,45.43
2022-09-28T16:22:53.403Z,45.73
2022-09-28T16:25:26.067Z,45.42
2022-09-28T16:27:55.317Z,45.58
2022-09-28T16:30:28.817Z,45.66
2022-09-28T16:33:28.865Z,45.96
2022-09-28T16:36:02.087Z,45.98
2022-09-28T16:38:29.379Z,46.21
2022-09-28T16:40:59.374Z,46.49
2022-09-28T16:43:30.235Z,46.11
2022-09-28T16:46:05.791Z,46.63
2022-09-28T16:48:35.782Z,46.55
2022-09-28T16:51:03.373Z,46.54
2022-09-28T16:53:48.900Z,46.33
2022-09-28T16:56:16.481Z,46.61
2022-09-28T16:58:44.156Z,46.81
2022-09-28T17:01:12.243Z,46.39
2022-09-28T17:03:44.465Z,46.21
2022-09-28T17:06:12.230Z,46.26
2022-09-28T17:08:39.884Z,46.50
2022-09-28T17:11:16.860Z,46.46
2022-09-28T17:13:48.280Z,46.13
2022-09-28T17:16:18.468Z,47.27
2022-09-28T17:18:46.888Z,47.17
2022-09-28T17:21:19.882Z,47.77
2022-09-28T17:23:48.934Z,47.28
2022-09-28T17:26:34.382Z,47.28
2022-09-28T17:29:02.074Z,47.79
2022-09-28T17:31:29.754Z,50.75
2022-09-28T17:33:57.051Z,50.33
2022-09-28T17:36:25.892Z,50.73
2022-09-28T17:38:53.505Z,50.49
2022-09-28T17:41:21.186Z,50.64
2022-09-28T17:43:49.288Z,50.34
2022-09-28T17:46:34.920Z,51.73
2022-09-28T17:49:04.350Z,51.93
2022-09-28T17:51:34.862Z,52.64
2022-09-28T17:54:02.229Z,52.65
2022-09-28T17:56:32.414Z,53.37
2022-09-28T17:59:03.273Z,54.67
2022-09-28T18:01:34.132Z,54.75
2022-09-28T18:04:07.451Z,54.68
2022-09-28T18:06:36.644Z,55.05
2022-09-28T18:09:04.778Z,55.58
2022-09-28T18:11:33.355Z,56.25
2022-09-28T18:14:00.991Z,55.74
2022-09-28T18:16:29.230Z,55.77
2022-09-28T18:18:58.388Z,56.53
2022-09-28T18:21:25.760Z,56.88
2022-09-28T18:23:56.375Z,56.85
2022-09-28T18:26:23.714Z,57.08
2022-09-28T18:28:54.824Z,57.62
2022-09-28T18:31:22.704Z,57.80
2022-09-28T18:33:50.208Z,57.68
2022-09-28T18:36:17.584Z,58.53
2022-09-28T18:38:45.241Z,58.81
2022-09-28T18:41:15.544Z,58.93
2022-09-28T18:43:48.848Z,58.60
2022-09-28T18:46:18.220Z,58.55
2022-09-28T18:48:48.094Z,59.04
2022-09-28T18:51:15.711Z,58.92
2022-09-28T18:53:45.805Z,59.29
2022-09-28T18:56:18.468Z,59.90
2022-09-28T18:58:46.904Z,59.79
2022-09-28T19:01:32.645Z,59.33
2022-09-28T19:04:05.820Z,61.19
2022-09-28T19:06:44.319Z,60.28
2022-09-28T19:09:12.464Z,59.94
2022-09-28T19:11:39.789Z,60.04
2022-09-28T19:14:11.005Z,59.60
2022-09-28T19:16:38.570Z,60.27
2022-09-28T19:19:06.890Z,59.92
2022-09-28T19:21:34.814Z,60.05
2022-09-28T19:24:03.158Z,59.73
2022-09-28T19:26:31.613Z,59.66
2022-09-28T19:28:59.714Z,59.45
2022-09-28T19:31:28.047Z,59.50
2022-09-28T19:33:55.588Z,59.56
2022-09-28T19:36:24.880Z,60.32
2022-09-28T19:38:53.320Z,60.15
2022-09-28T19:41:44.850Z,60.20
2022-09-28T19:44:27.436Z,60.49
2022-09-28T19:46:59.120Z,61.07
2022-09-28T19:49:27.735Z,61.35
2022-09-28T19:52:14.246Z,61.28
2022-09-28T19:54:56.654Z,60.96
2022-09-28T19:57:28.352Z,60.87
2022-09-28T20:00:16.760Z,61.60
2022-09-28T20:02:44.395Z,61.73
2022-09-28T20:05:11.724Z,61.66
2022-09-28T20:07:39.759Z,61.30
2022-09-28T20:10:07.552Z,61.21
2022-09-28T20:12:35.090Z,61.19
2022-09-28T20:15:35.802Z,61.11
2022-09-28T20:18:03.695Z,61.54
2022-09-28T20:20:30.987Z,61.58
2022-09-28T20:22:58.383Z,61.52
2022-09-28T20:25:26.311Z,61.66
2022-09-28T20:27:53.799Z,61.76
2022-09-28T20:30:21.130Z,61.56
2022-09-28T20:32:49.752Z,61.95
2022-09-28T20:35:30.403Z,61.88
2022-09-28T20:38:09.041Z,61.95
2022-09-28T20:40:37.216Z,62.03
2022-09-28T20:43:06.369Z,61.99
2022-09-28T20:45:39.488Z,62.54
2022-09-28T20:50:34.690Z,62.27
2022-09-28T20:53:02.045Z,62.14
2022-09-28T20:55:29.766Z,61.72
2022-09-28T20:58:02.147Z,61.83
2022-09-28T21:00:30.029Z,62.23
2022-09-28T21:02:57.514Z,62.96
2022-09-28T21:05:24.888Z,63.06
2022-09-28T21:07:52.435Z,63.21
2022-09-28T21:10:19.775Z,63.29
2022-09-28T21:12:53.025Z,63.76
2022-09-28T21:15:20.596Z,63.20
2022-09-28T21:17:47.938Z,63.74
2022-09-28T21:20:15.275Z,63.58
2022-09-28T21:22:42.819Z,63.45
2022-09-28T21:25:10.118Z,63.38
2022-09-28T21:27:37.425Z,63.19
2022-09-28T21:30:05.599Z,62.92
2022-09-28T21:32:35.115Z,63.13
2022-09-28T21:35:02.401Z,62.99
2022-09-28T21:37:29.972Z,62.91
2022-09-28T21:39:57.257Z,63.22
2022-09-28T21:42:24.534Z,63.30
2022-09-28T21:44:54.411Z,63.35
2022-09-28T21:47:23.615Z,63.40
2022-09-28T21:49:50.971Z,63.30
2022-09-28T21:52:18.514Z,63.75
2022-09-28T21:54:45.829Z,64.33
2022-09-28T21:57:13.126Z,63.62
2022-09-28T21:59:40.701Z,63.55
